Time;durP1;ratioP1;P1;durP2;ratioP2;P2;SDS_P1;SDS_P2;PMS_P1;PMS_P2;Temp;Humidity;BMP_temperature;BMP_pressure;BME280_temperature;BME280_humidity;BME280_pressure;Samples;Min_cycle;Max_cycle;Signal;HPM_P1;HPM_P2
2021/06/27 00:01:56;;;;;;;8.95;6.40;;;;;;;16.22;75.33;101189.44;125089;1092;65362;-81
2021/06/27 00:04:23;;;;;;;9.43;5.73;;;;;;;16.20;75.26;101194.17;124990;1092;64265;-81
2021/06/27 00:06:50;;;;;;;8.37;6.30;;;;;;;16.19;75.37;101189.83;125070;1093;64281;-81
2021/06/27 00:09:17;;;;;;;7.53;5.63;;;;;;;16.15;75.24;101191.28;125012;1093;64243;-80
2021/06/27 00:11:45;;;;;;;10.03;5.73;;;;;;;16.13;75.47;101196.00;125005;1092;64316;-81
2021/06/27 00:14:13;;;;;;;8.87;6.00;;;;;;;16.10;75.48;101189.17;124898;1093;64328;-78
2021/06/27 00:16:41;;;;;;;8.23;5.87;;;;;;;16.06;75.42;101195.95;125115;1093;64236;-79
2021/06/27 00:19:08;;;;;;;8.97;6.27;;;;;;;16.01;75.66;101189.56;124899;1093;64250;-79
2021/06/27 00:21:35;;;;;;;8.17;6.07;;;;;;;15.96;75.50;101191.98;125175;1092;64615;-80
2021/06/27 00:24:03;;;;;;;9.60;6.53;;;;;;;15.90;75.77;101191.77;124911;1093;64421;-80
2021/06/27 00:26:30;;;;;;;8.10;6.57;;;;;;;15.84;75.85;101181.03;125020;1093;64320;-80
2021/06/27 00:28:57;;;;;;;9.40;6.80;;;;;;;15.79;75.97;101184.31;124886;1092;64313;-78
2021/06/27 00:31:25;;;;;;;7.63;5.97;;;;;;;15.73;75.98;101177.06;124966;1092;64314;-79
2021/06/27 00:33:52;;;;;;;9.13;5.67;;;;;;;15.68;76.44;101184.80;124882;1093;64359;-81
2021/06/27 00:36:19;;;;;;;9.63;6.67;;;;;;;15.63;76.59;101181.91;124879;1092;64441;-79
2021/06/27 00:38:47;;;;;;;7.47;5.50;;;;;;;15.57;76.82;101180.02;124927;1093;64348;-79
2021/06/27 00:41:14;;;;;;;9.73;6.10;;;;;;;15.49;76.85;101179.16;125396;1093;64288;-79
2021/06/27 00:43:41;;;;;;;9.17;6.90;;;;;;;15.44;77.02;101180.75;125037;1093;64285;-81
2021/06/27 00:46:08;;;;;;;8.70;6.23;;;;;;;15.38;77.35;101178.86;124956;1092;64304;-79
2021/06/27 00:48:36;;;;;;;8.47;5.93;;;;;;;15.33;77.21;101181.30;124853;1093;64457;-80
2021/06/27 00:51:04;;;;;;;7.67;5.60;;;;;;;15.28;77.54;101181.89;124982;1092;64346;-80
2021/06/27 00:53:31;;;;;;;10.47;6.03;;;;;;;15.23;77.66;101182.44;124879;1093;64342;-82
2021/06/27 00:55:58;;;;;;;7.97;5.17;;;;;;;15.19;77.85;101186.52;124839;1093;64291;-83
2021/06/27 00:58:34;;;;;;;8.63;6.17;;;;;;;15.16;77.90;101191.45;125038;1093;64348;-80
2021/06/27 01:01:05;;;;;;;10.53;5.93;;;;;;;15.13;77.63;101197.16;125057;1092;64362;-81
2021/06/27 01:03:33;;;;;;;9.57;6.13;;;;;;;15.11;78.20;101193.84;125088;1092;64789;-81
2021/06/27 01:06:01;;;;;;;7.90;5.30;;;;;;;15.07;78.00;101201.45;124899;1093;64796;-82
2021/06/27 01:08:28;;;;;;;9.23;6.03;;;;;;;15.04;78.21;101204.48;125188;1093;64211;-81
2021/06/27 01:10:55;;;;;;;8.57;5.80;;;;;;;15.00;78.26;101190.70;127219;1093;64160;-80
2021/06/27 01:13:24;;;;;;;8.60;5.90;;;;;;;14.98;78.77;101192.74;127280;1092;64435;-82
2021/06/27 01:15:53;;;;;;;10.53;5.87;;;;;;;14.96;78.60;101192.11;127219;1093;64192;-81
2021/06/27 01:18:22;;;;;;;8.30;5.57;;;;;;;14.96;78.81;101200.12;126879;1093;65401;-80
2021/06/27 01:20:49;;;;;;;8.90;6.00;;;;;;;14.95;78.60;101190.44;126878;1092;64207;-82
2021/06/27 01:23:19;;;;;;;9.97;5.93;;;;;;;14.96;79.29;101202.79;125948;1093;64231;-81
2021/06/27 01:25:53;;;;;;;9.00;6.17;;;;;;;14.96;78.88;101191.25;125017;1092;64413;-80
2021/06/27 01:28:20;;;;;;;6.80;5.37;;;;;;;14.95;79.03;101194.95;125105;1093;64278;-80
2021/06/27 01:30:47;;;;;;;10.07;5.83;;;;;;;14.94;78.90;101194.14;125003;1093;64310;-80
2021/06/27 01:33:20;;;;;;;7.73;6.00;;;;;;;14.91;78.94;101191.02;124999;1093;64332;-80
2021/06/27 01:35:48;;;;;;;11.63;5.93;;;;;;;14.88;79.40;101194.90;124895;1093;64282;-78
2021/06/27 01:38:17;;;;;;;7.97;5.43;;;;;;;14.85;79.42;101196.11;125145;1093;64415;-79
2021/06/27 01:40:45;;;;;;;7.07;5.30;;;;;;;14.83;79.06;101191.95;125123;1093;64278;-79
2021/06/27 01:43:21;;;;;;;10.03;6.17;;;;;;;14.81;79.11;101191.31;125038;1093;64344;-79
2021/06/27 01:45:51;;;;;;;7.13;5.63;;;;;;;14.79;79.30;101190.68;125099;1093;64252;-80
2021/06/27 01:48:19;;;;;;;10.70;5.43;;;;;;;14.78;79.25;101191.71;125619;1093;64984;-80
2021/06/27 01:50:48;;;;;;;8.60;5.20;;;;;;;14.75;79.36;101190.26;126009;1092;64367;-81
2021/06/27 01:53:18;;;;;;;8.57;6.07;;;;;;;14.72;79.67;101190.63;126041;1093;63807;-81
2021/06/27 01:55:47;;;;;;;8.20;6.33;;;;;;;14.70;79.83;101187.31;126082;1093;64377;-80
2021/06/27 01:58:14;;;;;;;9.85;6.50;;;;;;;14.68;79.97;101192.87;125932;1093;64291;-79
2021/06/27 02:00:41;;;;;;;15.30;6.10;;;;;;;14.65;80.07;101185.22;126231;1093;62302;-80
2021/06/27 02:03:16;;;;;;;8.13;5.80;;;;;;;14.64;79.98;101188.92;125352;1093;64368;-79
2021/06/27 02:05:44;;;;;;;8.00;5.70;;;;;;;14.64;80.12;101185.39;125161;1092;64211;-79
2021/06/27 02:08:11;;;;;;;12.80;5.50;;;;;;;14.62;80.69;101180.27;125035;1093;64368;-80
2021/06/27 02:10:38;;;;;;;7.63;5.67;;;;;;;14.60;80.62;101181.45;124878;1093;64868;-80
2021/06/27 02:13:05;;;;;;;9.73;6.33;;;;;;;14.57;80.37;101177.32;125075;1093;64323;-79
2021/06/27 02:15:32;;;;;;;10.23;6.30;;;;;;;14.57;80.39;101179.17;125009;1093;64300;-79
2021/06/27 02:18:27;;;;;;;12.60;7.20;;;;;;;14.52;80.78;101173.55;124979;1093;64307;-78
2021/06/27 02:20:56;;;;;;;9.17;6.93;;;;;;;14.48;80.60;101178.44;124862;1093;64234;-78
2021/06/27 02:23:24;;;;;;;12.60;6.47;;;;;;;14.45;80.62;101168.12;124957;1093;64875;-79
2021/06/27 02:25:51;;;;;;;12.70;7.20;;;;;;;14.42;81.08;101168.51;125118;1093;64208;-79
2021/06/27 02:28:18;;;;;;;10.13;6.80;;;;;;;14.41;80.83;101166.88;124970;1093;64304;-79
2021/06/27 02:30:46;;;;;;;9.47;5.77;;;;;;;14.40;80.96;101165.20;125009;1093;64298;-80
2021/06/27 02:33:14;;;;;;;12.17;6.37;;;;;;;14.37;81.06;101170.93;125024;1093;64214;-80
2021/06/27 02:35:41;;;;;;;11.43;6.63;;;;;;;14.33;81.26;101164.31;125009;1093;64208;-81
2021/06/27 02:38:09;;;;;;;9.23;6.17;;;;;;;14.30;81.00;101170.01;124869;1092;64352;-81
2021/06/27 02:40:37;;;;;;;11.00;6.50;;;;;;;14.27;81.20;101172.03;124982;1093;64455;-79
2021/06/27 02:43:04;;;;;;;11.37;6.73;;;;;;;14.23;81.08;101173.42;125138;1093;64298;-82
2021/06/27 02:45:32;;;;;;;11.43;6.60;;;;;;;14.22;81.36;101168.30;125048;1093;64264;-81
2021/06/27 02:47:59;;;;;;;11.10;6.97;;;;;;;14.20;81.13;101170.32;124999;1093;64288;-80
2021/06/27 02:50:27;;;;;;;11.90;7.70;;;;;;;14.19;81.35;101173.98;125011;1093;64287;-79
2021/06/27 02:52:54;;;;;;;10.90;6.47;;;;;;;14.18;81.22;101170.50;125214;1093;64339;-82
2021/06/27 02:55:23;;;;;;;9.77;6.80;;;;;;;14.18;81.44;101161.67;126122;1092;64388;-80
2021/06/27 02:57:52;;;;;;;12.90;7.33;;;;;;;14.18;81.67;101167.02;126354;1092;64286;-81
2021/06/27 03:00:21;;;;;;;10.20;6.63;;;;;;;14.16;81.53;101159.19;125097;1092;64324;-80
2021/06/27 03:02:48;;;;;;;11.23;7.50;;;;;;;14.16;81.62;101163.70;125006;1093;64333;-80
2021/06/27 03:05:16;;;;;;;11.10;8.33;;;;;;;14.14;81.68;101161.22;125136;1092;64566;-81
2021/06/27 03:07:44;;;;;;;13.97;8.57;;;;;;;14.12;81.70;101171.25;125882;1093;64233;-82
2021/06/27 03:10:13;;;;;;;16.20;7.55;;;;;;;14.12;82.02;101163.23;126303;1093;64272;-81
2021/06/27 03:12:46;;;;;;;13.23;7.87;;;;;;;14.13;82.20;101167.58;125209;1092;64304;-83
2021/06/27 03:15:18;;;;;;;12.93;8.30;;;;;;;14.13;82.14;101159.58;124824;1092;64477;-79
2021/06/27 03:17:46;;;;;;;14.13;8.93;;;;;;;14.14;82.36;101153.20;125064;1093;64350;-81
2021/06/27 03:20:15;;;;;;;10.87;6.63;;;;;;;14.16;82.17;101159.19;125089;1092;64179;-82
2021/06/27 03:22:44;;;;;;;13.47;7.60;;;;;;;14.17;82.53;101155.48;125199;1092;64397;-81
2021/06/27 03:25:12;;;;;;;12.10;7.60;;;;;;;14.18;82.19;101159.83;127097;1093;64237;-80
2021/06/27 03:27:39;;;;;;;15.63;8.27;;;;;;;14.21;82.02;101161.28;126074;1093;64304;-81
2021/06/27 03:30:07;;;;;;;11.93;7.53;;;;;;;14.21;82.32;101162.11;126693;1093;64428;-81
2021/06/27 03:32:36;;;;;;;12.87;8.63;;;;;;;14.23;82.54;101153.92;126122;1093;64326;-80
2021/06/27 03:35:05;;;;;;;13.43;8.07;;;;;;;14.28;82.51;101157.69;127159;1093;64201;-80
2021/06/27 03:37:32;;;;;;;13.07;8.27;;;;;;;14.31;82.36;101158.33;126787;1093;64278;-80
2021/06/27 03:39:59;;;;;;;14.20;8.23;;;;;;;14.35;82.06;101146.27;125485;1092;64231;-81
2021/06/27 03:42:28;;;;;;;14.77;8.47;;;;;;;14.37;82.20;101150.39;125020;1093;64378;-80
2021/06/27 03:44:55;;;;;;;13.10;7.27;;;;;;;14.44;82.03;101153.13;125135;1093;64754;-81
2021/06/27 03:47:24;;;;;;;13.20;8.53;;;;;;;14.46;82.36;101154.59;125234;1093;64282;-81
2021/06/27 03:49:52;;;;;;;11.70;8.00;;;;;;;14.51;81.96;101156.69;126998;1093;64217;-82
2021/06/27 03:52:19;;;;;;;14.40;8.35;;;;;;;14.55;81.64;101151.80;127201;1092;64191;-79
2021/06/27 03:54:47;;;;;;;11.73;7.27;;;;;;;14.59;81.97;101143.25;125939;1093;64737;-80
2021/06/27 03:57:14;;;;;;;11.57;7.50;;;;;;;14.65;81.57;101141.67;126731;1093;61874;-81
2021/06/27 03:59:41;;;;;;;12.83;8.23;;;;;;;14.70;81.40;101144.59;125856;1093;64400;-79
2021/06/27 04:02:08;;;;;;;14.80;7.73;;;;;;;14.75;81.31;101139.52;125629;1093;64220;-81
2021/06/27 04:04:35;;;;;;;14.33;8.13;;;;;;;14.83;81.35;101151.89;126511;1093;64312;-81
2021/06/27 04:07:05;;;;;;;11.53;6.60;;;;;;;14.90;81.00;101147.45;126354;1093;64435;-81
2021/06/27 04:09:32;;;;;;;13.00;7.50;;;;;;;14.96;80.72;101148.51;126201;1093;64246;-81
2021/06/27 04:11:59;;;;;;;12.53;7.40;;;;;;;15.01;80.68;101152.27;125760;1093;64288;-81
2021/06/27 04:14:27;;;;;;;11.40;7.00;;;;;;;15.09;80.66;101151.31;125732;1092;64386;-81
2021/06/27 04:16:54;;;;;;;11.37;7.27;;;;;;;15.14;80.20;101150.72;124841;1092;64773;-81
2021/06/27 04:19:21;;;;;;;11.07;6.93;;;;;;;15.19;80.01;101153.63;125092;1093;64352;-81
2021/06/27 04:21:49;;;;;;;9.27;6.30;;;;;;;15.26;79.65;101144.66;124846;1093;64684;-79
2021/06/27 04:24:16;;;;;;;10.90;6.33;;;;;;;15.34;79.60;101156.20;125340;1092;64259;-78
2021/06/27 04:26:43;;;;;;;11.53;6.80;;;;;;;15.40;79.35;101155.43;124897;1093;64320;-78
2021/06/27 04:29:13;;;;;;;11.23;6.03;;;;;;;15.49;79.14;101151.57;125158;1091;64172;-80
2021/06/27 04:31:42;;;;;;;10.57;6.70;;;;;;;15.58;79.15;101147.73;125091;1093;64310;-79
2021/06/27 04:34:10;;;;;;;8.33;5.53;;;;;;;15.64;78.98;101141.61;125074;1093;64265;-77
2021/06/27 04:36:37;;;;;;;12.33;7.63;;;;;;;15.70;78.42;101145.31;124841;1093;64363;-78
2021/06/27 04:39:06;;;;;;;18.87;7.67;;;;;;;15.75;78.19;101142.92;124903;1092;64275;-80
2021/06/27 04:41:34;;;;;;;11.90;7.17;;;;;;;15.84;78.34;101141.73;124962;1092;64266;-79
2021/06/27 04:44:02;;;;;;;12.55;7.30;;;;;;;15.93;77.99;101138.88;124931;1093;64280;-79
2021/06/27 04:46:29;;;;;;;11.00;6.40;;;;;;;16.02;77.76;101140.35;125018;1093;64284;-78
2021/06/27 04:48:57;;;;;;;10.60;7.03;;;;;;;16.13;77.55;101133.59;125076;1093;65219;-78
2021/06/27 04:51:24;;;;;;;10.53;6.77;;;;;;;16.25;77.65;101142.70;124926;1093;64324;-79
2021/06/27 04:53:51;;;;;;;15.40;7.37;;;;;;;16.33;77.11;101137.17;124959;1093;64951;-80
2021/06/27 04:56:18;;;;;;;10.15;7.10;;;;;;;16.40;76.63;101134.50;125014;1093;64317;-80
2021/06/27 04:58:46;;;;;;;8.73;5.97;;;;;;;16.48;76.74;101137.81;125036;1093;64266;-79
2021/06/27 05:01:13;;;;;;;11.10;6.73;;;;;;;16.55;76.40;101143.17;125068;1092;64371;-79
2021/06/27 05:03:40;;;;;;;9.93;6.00;;;;;;;16.62;76.17;101138.67;125040;1093;64312;-79
2021/06/27 05:06:07;;;;;;;10.87;5.87;;;;;;;16.69;76.16;101138.68;124829;1093;64176;-78
2021/06/27 05:08:34;;;;;;;8.97;5.57;;;;;;;16.79;76.14;101138.26;124805;1093;64379;-80
2021/06/27 05:11:03;;;;;;;10.30;4.73;;;;;;;16.87;75.80;101138.09;125130;1093;65391;-79
2021/06/27 05:13:30;;;;;;;10.30;5.83;;;;;;;16.90;75.81;101132.34;125181;1093;64211;-78
2021/06/27 05:15:57;;;;;;;11.83;6.63;;;;;;;16.99;75.99;101135.63;124939;1093;64317;-78
2021/06/27 05:18:25;;;;;;;10.90;6.57;;;;;;;17.10;76.00;101127.78;125022;1093;65484;-79
2021/06/27 05:20:52;;;;;;;10.47;5.77;;;;;;;17.17;75.57;101126.95;124901;1093;64364;-79
2021/06/27 05:23:19;;;;;;;13.67;6.50;;;;;;;17.23;75.09;101134.98;125153;1093;64209;-79
2021/06/27 05:25:46;;;;;;;11.23;6.17;;;;;;;17.33;75.21;101118.48;125024;1093;64862;-78
2021/06/27 05:28:14;;;;;;;9.27;5.53;;;;;;;17.46;74.93;101122.98;124998;1092;64287;-79
2021/06/27 05:30:41;;;;;;;11.27;5.80;;;;;;;17.58;74.43;101125.86;125091;1093;64287;-79
2021/06/27 05:33:08;;;;;;;10.83;5.97;;;;;;;17.69;74.30;101117.15;124848;1093;64323;-78
2021/06/27 05:35:35;;;;;;;15.13;5.60;;;;;;;17.79;73.71;101111.34;125032;1092;64402;-78
2021/06/27 05:38:03;;;;;;;12.23;5.83;;;;;;;17.91;73.70;101118.55;125480;1093;64291;-78
2021/06/27 05:40:30;;;;;;;8.97;5.63;;;;;;;18.02;73.05;101116.20;125311;1092;64241;-80
2021/06/27 05:42:58;;;;;;;11.60;6.33;;;;;;;18.12;73.05;101121.95;127227;1093;64227;-79
2021/06/27 05:45:25;;;;;;;7.77;4.90;;;;;;;18.23;72.75;101117.75;126437;1093;64211;-81
2021/06/27 05:47:52;;;;;;;10.03;5.03;;;;;;;18.31;72.14;101114.82;126352;1093;64214;-80
2021/06/27 05:50:20;;;;;;;7.83;4.90;;;;;;;18.43;72.00;101112.28;126252;1093;64261;-80
2021/06/27 05:52:47;;;;;;;10.07;5.30;;;;;;;18.53;71.59;101113.45;126077;1093;62495;-79
2021/06/27 05:55:14;;;;;;;9.47;4.53;;;;;;;18.63;71.33;101118.32;126019;1093;64647;-78
2021/06/27 05:57:42;;;;;;;9.87;4.93;;;;;;;18.73;71.13;101118.66;125580;1092;64329;-79
2021/06/27 06:00:09;;;;;;;8.83;4.87;;;;;;;18.83;70.30;101115.53;125964;1092;64208;-80
2021/06/27 06:02:36;;;;;;;6.67;4.13;;;;;;;18.92;70.08;101114.20;125516;1093;64586;-79
2021/06/27 06:05:04;;;;;;;6.93;3.87;;;;;;;19.01;69.55;101109.36;126174;1093;64603;-79
2021/06/27 06:07:31;;;;;;;7.17;4.93;;;;;;;19.09;68.69;101106.40;125703;1092;64300;-80
2021/06/27 06:09:58;;;;;;;6.73;3.63;;;;;;;19.15;68.18;101105.52;125371;1093;65454;-80
2021/06/27 06:12:25;;;;;;;9.70;4.73;;;;;;;19.22;67.98;101099.25;125632;1092;65140;-79
2021/06/27 06:14:52;;;;;;;6.67;4.47;;;;;;;19.27;67.59;101102.08;125444;1092;64326;-78
2021/06/27 06:17:19;;;;;;;8.07;4.17;;;;;;;19.31;67.56;101103.28;125078;1093;64307;-78
2021/06/27 06:19:51;;;;;;;7.30;4.50;;;;;;;19.39;67.39;101100.30;125323;1093;64233;-81
2021/06/27 06:22:20;;;;;;;5.67;3.73;;;;;;;19.49;66.67;101094.41;125110;1093;64438;-81
2021/06/27 06:24:48;;;;;;;5.83;3.87;;;;;;;19.60;66.39;101096.34;125441;1092;64259;-81
2021/06/27 06:27:18;;;;;;;5.23;3.47;;;;;;;19.68;66.24;101096.05;125231;1093;64297;-81
2021/06/27 06:29:55;;;;;;;5.97;3.53;;;;;;;19.76;66.28;101089.55;126164;1093;64332;-81
2021/06/27 06:32:24;;;;;;;8.30;3.63;;;;;;;19.90;65.84;101101.80;127088;1093;64032;-81
2021/06/27 06:34:52;;;;;;;7.83;4.60;;;;;;;20.01;66.06;101099.39;125747;1093;64464;-81
2021/06/27 06:37:19;;;;;;;6.80;3.87;;;;;;;20.17;65.87;101096.07;125227;1093;64307;-81
2021/06/27 06:39:47;;;;;;;6.47;3.90;;;;;;;20.25;65.24;101087.67;125332;1092;64463;-81
2021/06/27 06:42:14;;;;;;;6.80;4.23;;;;;;;20.33;65.14;101097.28;125386;1093;64329;-81
2021/06/27 06:44:41;;;;;;;6.70;4.50;;;;;;;20.44;65.29;101106.44;125065;1093;64339;-81
2021/06/27 06:47:08;;;;;;;6.37;4.07;;;;;;;20.59;64.70;101104.16;125132;1093;64333;-81
2021/06/27 06:49:35;;;;;;;6.43;4.30;;;;;;;20.68;64.80;101110.88;125385;1093;64214;-81
2021/06/27 06:52:03;;;;;;;8.97;3.77;;;;;;;20.75;63.55;101105.38;125116;1093;64303;-81
2021/06/27 06:54:30;;;;;;;6.93;4.10;;;;;;;20.71;63.54;101113.09;125174;1093;64360;-81
2021/06/27 06:56:57;;;;;;;6.00;3.70;;;;;;;20.74;63.92;101112.64;125115;1093;64377;-81
2021/06/27 06:59:24;;;;;;;4.45;3.45;;;;;;;20.87;64.42;101103.52;124911;1091;64983;-81
2021/06/27 07:01:51;;;;;;;6.45;3.85;;;;;;;21.05;63.50;101101.76;125071;1093;64366;-81
2021/06/27 07:04:18;;;;;;;5.20;3.20;;;;;;;21.18;62.58;101101.51;125331;1093;64272;-81
2021/06/27 07:06:46;;;;;;;7.70;3.63;;;;;;;21.20;61.89;101094.00;125354;1093;64256;-81
2021/06/27 07:09:13;;;;;;;5.05;3.00;;;;;;;21.25;61.46;101096.83;125039;1093;64374;-81
2021/06/27 07:11:43;;;;;;;5.43;2.80;;;;;;;21.32;61.47;101094.81;125263;1092;64208;-81
2021/06/27 07:14:11;;;;;;;5.27;3.30;;;;;;;21.46;62.30;101098.09;125072;1093;64210;-81
2021/06/27 07:16:38;;;;;;;5.50;3.20;;;;;;;21.64;61.47;101099.02;125543;1093;64211;-82
2021/06/27 07:19:06;;;;;;;4.27;2.73;;;;;;;21.80;60.70;101090.15;126088;1093;64146;-82
2021/06/27 07:21:33;;;;;;;4.90;3.13;;;;;;;21.98;60.00;101095.38;126865;1093;64276;-80
2021/06/27 07:24:01;;;;;;;6.10;3.10;;;;;;;22.12;58.32;101093.22;125406;1093;64233;-73
2021/06/27 07:26:28;;;;;;;4.57;3.00;;;;;;;22.19;57.02;101101.98;124652;1092;64368;-74
2021/06/27 07:28:55;;;;;;;4.53;2.77;;;;;;;22.26;57.66;101095.64;124865;1093;64330;-75
2021/06/27 07:31:22;;;;;;;4.10;3.60;;;;;;;22.31;57.25;101099.23;124828;1092;64352;-73
2021/06/27 07:33:49;;;;;;;4.67;3.13;;;;;;;22.41;57.51;101093.20;124880;1093;64300;-74
2021/06/27 07:36:16;;;;;;;3.97;3.00;;;;;;;22.49;57.49;101090.09;124860;1093;64994;-72
2021/06/27 07:38:43;;;;;;;4.43;3.00;;;;;;;22.60;56.54;101085.67;124768;1093;64294;-74
2021/06/27 07:41:13;;;;;;;5.63;3.63;;;;;;;22.68;57.06;101087.16;124948;1093;64256;-73
2021/06/27 07:43:41;;;;;;;5.60;3.33;;;;;;;22.74;56.57;101086.99;124911;1093;64282;-74
2021/06/27 07:46:08;;;;;;;3.40;3.00;;;;;;;22.88;56.68;101097.47;124896;1093;64230;-73
2021/06/27 07:48:36;;;;;;;6.00;3.80;;;;;;;23.04;56.80;101095.86;124811;1093;64364;-74
2021/06/27 07:51:03;;;;;;;6.03;3.43;;;;;;;23.19;57.27;101083.34;124856;1093;64276;-74
2021/06/27 07:53:30;;;;;;;4.65;2.85;;;;;;;23.35;55.14;101086.26;124733;1093;64766;-73
2021/06/27 07:55:57;;;;;;;5.03;3.37;;;;;;;23.44;54.84;101084.77;124807;1093;64378;-73
2021/06/27 07:58:24;;;;;;;5.10;3.00;;;;;;;23.49;55.02;101086.72;124786;1092;64300;-74
2021/06/27 08:00:51;;;;;;;4.17;2.40;;;;;;;23.61;55.01;101090.94;124901;1093;64231;-74
2021/06/27 08:03:18;;;;;;;4.57;3.00;;;;;;;23.72;54.59;101093.77;124634;1092;64294;-73
2021/06/27 08:05:45;;;;;;;4.67;2.83;;;;;;;23.83;53.21;101087.42;124689;1093;64767;-75
2021/06/27 08:08:13;;;;;;;4.70;2.93;;;;;;;23.94;52.74;101083.74;124745;1093;64288;-72
2021/06/27 08:10:43;;;;;;;4.50;2.70;;;;;;;23.97;52.81;101082.41;124823;1093;64292;-74
2021/06/27 08:13:10;;;;;;;3.80;2.60;;;;;;;24.09;52.60;101079.56;125000;1093;64435;-73
2021/06/27 08:15:38;;;;;;;4.70;2.87;;;;;;;24.19;52.54;101079.66;124617;1093;64294;-74
2021/06/27 08:18:05;;;;;;;3.07;2.47;;;;;;;24.38;53.35;101080.11;124724;1093;64383;-73
2021/06/27 08:20:32;;;;;;;4.60;3.10;;;;;;;24.54;52.51;101083.78;124848;1093;64475;-74
2021/06/27 08:23:00;;;;;;;4.40;2.80;;;;;;;24.66;50.84;101084.43;124648;1093;64336;-74
2021/06/27 08:25:28;;;;;;;5.47;3.10;;;;;;;24.74;51.33;101085.86;124682;1093;64278;-74
2021/06/27 08:27:55;;;;;;;3.25;2.60;;;;;;;24.82;50.67;101086.19;124909;1092;64301;-74
2021/06/27 08:30:23;;;;;;;4.47;3.10;;;;;;;24.85;50.29;101086.74;124913;1093;64282;-73
2021/06/27 08:32:51;;;;;;;3.73;3.10;;;;;;;24.93;50.72;101080.83;124833;1093;64262;-73
2021/06/27 08:35:20;;;;;;;5.33;3.53;;;;;;;25.01;50.05;101083.03;124894;1093;64262;-73
2021/06/27 08:37:50;;;;;;;4.83;2.80;;;;;;;25.05;50.05;101084.14;124869;1093;64510;-74
2021/06/27 08:40:18;;;;;;;3.50;3.10;;;;;;;25.23;51.19;101077.50;124980;1093;64297;-73
2021/06/27 08:42:46;;;;;;;4.90;3.00;;;;;;;25.40;50.88;101077.31;124894;1093;64573;-73
2021/06/27 08:45:16;;;;;;;5.43;2.50;;;;;;;25.55;49.06;101073.84;124934;1092;64304;-73
2021/06/27 08:47:52;;;;;;;3.93;3.13;;;;;;;25.69;49.37;101069.52;125237;1092;64265;-75
2021/06/27 08:50:21;;;;;;;6.80;3.67;;;;;;;25.81;46.85;101077.45;124764;1093;64435;-74
2021/06/27 08:52:49;;;;;;;5.33;3.03;;;;;;;25.88;46.98;101078.00;125125;1093;64381;-73
2021/06/27 08:55:16;;;;;;;3.80;2.50;;;;;;;26.01;46.59;101068.55;125217;1093;65506;-75
2021/06/27 08:57:43;;;;;;;3.20;2.60;;;;;;;26.17;46.71;101069.39;124718;1093;64472;-73
2021/06/27 09:00:11;;;;;;;3.53;2.17;;;;;;;26.19;45.72;101072.66;124953;1093;64320;-74
2021/06/27 09:02:38;;;;;;;6.37;2.90;;;;;;;26.26;45.85;101073.20;125207;1092;64375;-75
2021/06/27 09:05:10;;;;;;;3.57;2.53;;;;;;;26.40;45.43;101077.02;124954;1093;64766;-73
2021/06/27 09:07:39;;;;;;;3.57;2.50;;;;;;;26.51;44.17;101080.56;124741;1093;64320;-75
2021/06/27 09:10:24;;;;;;;3.97;2.77;;;;;;;26.60;44.37;101083.58;125286;1093;64243;-74
2021/06/27 09:12:59;;;;;;;4.10;2.37;;;;;;;26.75;44.82;101088.19;125261;1092;64665;-74
2021/06/27 09:15:47;;;;;;;2.80;1.87;;;;;;;26.90;45.16;101092.80;124917;1093;64285;-74
2021/06/27 09:18:13;;;;;;;7.40;3.10;;;;;;;26.94;43.54;101089.25;124872;1093;65110;-74
2021/06/27 09:20:44;;;;;;;5.20;3.00;;;;;;;27.08;43.65;101096.86;124807;1093;64213;-74
2021/06/27 09:23:13;;;;;;;4.27;2.73;;;;;;;27.31;43.61;101093.56;124871;1093;64301;-74
2021/06/27 09:25:42;;;;;;;5.80;2.80;;;;;;;27.51;42.75;101089.12;124964;1093;64246;-73
2021/06/27 09:28:10;;;;;;;5.03;2.70;;;;;;;27.59;42.40;101089.34;124925;1093;64406;-73
2021/06/27 09:30:52;;;;;;;3.30;2.30;;;;;;;27.66;41.80;101089.84;124819;1093;64403;-73
2021/06/27 09:33:24;;;;;;;3.30;2.50;;;;;;;27.73;41.93;101089.54;124826;1092;64373;-75
2021/06/27 09:35:56;;;;;;;2.70;2.07;;;;;;;27.74;40.65;101084.92;124901;1092;64286;-74
2021/06/27 09:38:38;;;;;;;3.03;2.20;;;;;;;27.69;40.80;101084.94;124838;1093;64281;-75
2021/06/27 09:41:21;;;;;;;2.97;2.27;;;;;;;27.71;41.26;101080.02;124769;1093;64448;-75
2021/06/27 09:44:03;;;;;;;4.47;2.47;;;;;;;27.76;41.55;101088.19;124899;1093;64288;-75
2021/06/27 09:46:30;;;;;;;3.73;2.53;;;;;;;27.64;41.14;101078.41;124975;1093;64293;-74
2021/06/27 09:49:06;;;;;;;2.80;2.33;;;;;;;27.65;41.31;101077.33;124874;1093;64284;-74
2021/06/27 09:51:41;;;;;;;3.10;2.40;;;;;;;27.69;40.60;101080.32;124843;1093;64357;-76
2021/06/27 09:54:16;;;;;;;3.65;2.50;;;;;;;27.75;39.73;101078.36;124876;1092;64274;-74
2021/06/27 09:56:45;;;;;;;3.10;2.23;;;;;;;27.79;40.78;101073.98;124850;1093;64454;-74
2021/06/27 09:59:14;;;;;;;4.25;2.60;;;;;;;27.76;39.58;101074.55;124944;1093;64326;-74
2021/06/27 10:01:42;;;;;;;2.97;2.37;;;;;;;27.74;40.45;101071.30;124957;1093;64303;-75
2021/06/27 10:04:13;;;;;;;4.13;2.37;;;;;;;27.74;40.41;101071.30;124848;1091;64281;-75
2021/06/27 10:06:52;;;;;;;3.57;2.93;;;;;;;27.74;40.05;101074.02;124884;1093;64463;-75
2021/06/27 10:09:22;;;;;;;4.43;2.70;;;;;;;27.79;39.40;101066.61;124973;1093;64290;-74
2021/06/27 10:12:10;;;;;;;2.87;2.40;;;;;;;27.87;39.37;101073.42;124905;1093;64280;-74
2021/06/27 10:14:49;;;;;;;3.07;2.60;;;;;;;28.01;38.64;101077.16;124853;1093;64992;-75
2021/06/27 10:17:18;;;;;;;2.70;2.20;;;;;;;28.23;39.25;101065.80;124912;1093;64288;-74
2021/06/27 10:19:47;;;;;;;10.70;2.90;;;;;;;28.39;37.27;101062.95;124968;1092;64317;-74
2021/06/27 10:22:15;;;;;;;3.57;2.40;;;;;;;28.43;37.18;101059.36;124995;1093;64304;-73
2021/06/27 10:24:43;;;;;;;3.10;2.37;;;;;;;28.46;34.47;101047.08;124859;1093;64293;-73
2021/06/27 10:27:10;;;;;;;2.67;2.10;;;;;;;28.49;36.27;101051.17;125006;1092;64285;-73
2021/06/27 10:29:42;;;;;;;3.83;2.30;;;;;;;28.62;37.43;101051.30;124865;1093;64288;-73
2021/06/27 10:32:11;;;;;;;5.27;2.87;;;;;;;28.71;36.26;101048.79;124669;1093;64331;-76
2021/06/27 10:34:39;;;;;;;3.70;2.50;;;;;;;28.73;36.37;101043.02;124937;1092;64285;-74
2021/06/27 10:37:24;;;;;;;4.33;2.70;;;;;;;28.79;35.90;101045.41;124694;1093;64371;-73
2021/06/27 10:39:58;;;;;;;4.17;2.30;;;;;;;28.83;33.91;101040.19;125124;1093;64200;-74
2021/06/27 10:43:01;;;;;;;2.90;2.23;;;;;;;28.76;34.10;101029.61;124916;1093;64230;-75
2021/06/27 10:45:48;;;;;;;2.50;2.30;;;;;;;28.74;34.10;101031.01;124583;1096;64505;-76
2021/06/27 10:48:37;;;;;;;4.30;2.57;;;;;;;28.78;35.11;101032.87;124800;1093;64378;-74
2021/06/27 10:51:10;;;;;;;3.03;1.90;;;;;;;28.89;33.77;101027.30;124835;1092;64371;-74
2021/06/27 10:54:15;;;;;;;2.87;1.80;;;;;;;28.92;34.39;101027.52;125296;1092;64245;-75
2021/06/27 10:57:04;;;;;;;2.57;1.93;;;;;;;28.84;33.86;101028.17;125010;1092;64304;-74
2021/06/27 11:02:18;;;;;;;2.97;1.90;;;;;;;28.80;33.19;101030.66;124848;1093;65208;-74
2021/06/27 11:04:46;;;;;;;2.40;2.17;;;;;;;28.73;32.86;101024.71;124807;1093;64285;-74
2021/06/27 11:07:32;;;;;;;2.90;2.00;;;;;;;28.61;32.91;101030.58;124773;1092;64379;-74
2021/06/27 11:10:18;;;;;;;2.10;1.77;;;;;;;28.72;35.37;101020.37;124845;1092;64274;-74
2021/06/27 11:13:01;;;;;;;3.90;2.40;;;;;;;28.78;34.64;101021.95;124830;1093;64425;-73
2021/06/27 11:15:30;;;;;;;2.47;1.70;;;;;;;28.95;35.04;101020.68;124985;1091;65016;-73
2021/06/27 11:18:06;;;;;;;2.53;1.90;;;;;;;29.11;34.73;101022.14;125073;1093;64323;-73
2021/06/27 11:20:56;;;;;;;2.47;1.97;;;;;;;29.22;35.44;101025.55;124868;1093;64281;-76
2021/06/27 11:23:53;;;;;;;2.27;1.80;;;;;;;29.27;34.31;101023.58;124961;1093;64301;-74
2021/06/27 11:26:38;;;;;;;3.00;2.00;;;;;;;29.44;34.40;101017.63;124825;1092;64287;-74
2021/06/27 11:29:21;;;;;;;2.90;1.87;;;;;;;29.57;34.46;101010.61;124864;1092;64281;-74